メインページ
METAR-TAF:

METAR-TAF

空港 :

バーレーン, バーレーン

バーレーン国際空港

緯度: 26-16N, 経度: 050-39E, 海抜: 2m

現時点の気象観測

当レポートは20分前の01:30(UTC)に作成
西/南西の風 4kt
気温 16°C
湿度 72%
気圧 1015 hPa
視程10km以上
1,500メートル以下は雲なし、積乱雲なし

METAR: OBBI 180130Z 25004KT CAVOK 16/11 Q1015 NOSIG

時間: 04:50 (01:50 UTC)

予報

当レポートは2時間50分前の23:00(UTC)に作成
予報は18日の 00時(UTC)から 19日の 06時(UTC)まで有効
北/北西の風 8kt
視程10km以上
1,500メートル以下は雲なし、積乱雲なし
18日の 18時(UTC)から 18日の 20時(UTC)まで徐々に
東/南東の風 7kt
確率 30% :
19日の 00時(UTC)から 19日の 06時(UTC)まで一時的に
視程: 4000m
煙霧

TAF: OBBI 172300Z 1800/1906 34008KT CAVOK BECMG 1818/1820 12007KT PROB30 TEMPO 1900/1906 4000 HZ NSC

4,000以上の空港の気象観測と天気予報(METAR報とTAF報)

利用可能な観測所は地図上に黄色い丸と赤い丸で示す。

丸の上にカーソルを重ねると観測所名を参照できる。

次にクリックすると気象観測と天気予報を参照できる。

マップの切り替え:黒色「×」印の緑ボタンをクリックして拡大、「-」印の緑ボタンをクリックして縮小、緑色の三角印をクリックして隣りの地図に切り替え


METAR-TAF: